createdAt,value
2023-05-08T00:00:34.024Z,1.77
2023-05-08T00:11:30.419Z,2.05
2023-05-08T00:40:29.523Z,2.03
2023-05-08T00:45:52.535Z,2.00
2023-05-08T00:50:58.536Z,2.30
2023-05-08T00:56:06.363Z,2.20
2023-05-08T01:01:18.623Z,2.20
2023-05-08T01:19:29.624Z,2.10
2023-05-08T01:26:01.864Z,2.50
2023-05-08T01:37:03.571Z,2.45
2023-05-08T02:00:01.909Z,2.10
2023-05-08T02:05:28.228Z,2.40
2023-05-08T02:22:28.535Z,2.35
2023-05-08T02:27:33.995Z,2.50
2023-05-08T02:37:54.752Z,2.65
2023-05-08T02:42:56.986Z,2.72
2023-05-08T02:48:20.012Z,2.47
2023-05-08T03:06:10.667Z,2.65
2023-05-08T03:17:13.833Z,2.95
2023-05-08T03:22:10.626Z,2.97
2023-05-08T03:27:08.054Z,2.78
2023-05-08T03:32:05.325Z,2.60
2023-05-08T03:37:03.368Z,3.17
2023-05-08T03:41:59.942Z,3.13
2023-05-08T03:46:58.393Z,3.10
2023-05-08T03:51:58.785Z,2.95
2023-05-08T03:56:55.426Z,3.15
2023-05-08T04:02:24.565Z,2.55
2023-05-08T04:07:46.364Z,2.80
2023-05-08T04:30:13.038Z,3.08
2023-05-08T04:40:16.238Z,3.03
2023-05-08T04:45:13.618Z,2.90
2023-05-08T04:55:40.884Z,2.80
2023-05-08T05:00:38.851Z,5.68
2023-05-08T05:11:11.394Z,3.30
2023-05-08T05:16:08.143Z,2.70
2023-05-08T05:26:00.942Z,2.97
2023-05-08T05:30:57.408Z,3.50
2023-05-08T05:41:07.739Z,3.47
2023-05-08T05:46:06.036Z,3.47
2023-05-08T05:51:02.663Z,3.40
2023-05-08T05:55:59.241Z,3.20
2023-05-08T06:01:01.080Z,3.17
2023-05-08T06:06:00.366Z,4.28
2023-05-08T06:11:00.222Z,3.20
2023-05-08T06:15:59.072Z,3.53
2023-05-08T06:26:17.070Z,3.17
2023-05-08T06:31:13.587Z,3.40
2023-05-08T06:41:23.306Z,3.10
2023-05-08T06:46:19.907Z,3.50
2023-05-08T06:51:16.470Z,3.80
2023-05-08T06:56:13.069Z,3.40
2023-05-08T07:06:06.310Z,3.60
2023-05-08T07:11:03.678Z,3.67
2023-05-08T07:16:00.876Z,4.60
2023-05-08T07:20:59.973Z,4.55
2023-05-08T07:25:57.279Z,4.13
2023-05-08T07:30:54.250Z,4.32
2023-05-08T07:35:50.845Z,4.35
2023-05-08T07:40:48.902Z,4.18
2023-05-08T07:45:45.426Z,4.15
2023-05-08T07:55:43.541Z,4.32
2023-05-08T08:00:46.810Z,4.30
2023-05-08T08:05:48.045Z,4.38
2023-05-08T08:10:44.883Z,4.85
2023-05-08T08:15:46.412Z,4.65
2023-05-08T08:20:42.961Z,4.70
2023-05-08T08:25:40.337Z,4.90
2023-05-08T08:30:37.089Z,4.63
2023-05-08T08:35:33.589Z,4.50
2023-05-08T08:45:26.718Z,4.43
2023-05-08T08:50:28.974Z,4.97
2023-05-08T08:55:30.916Z,4.70
2023-05-08T09:00:32.028Z,4.57
2023-05-08T09:05:28.549Z,4.60
2023-05-08T09:15:33.107Z,4.65
2023-05-08T09:20:31.594Z,4.70
2023-05-08T09:25:44.150Z,4.43
2023-05-08T09:30:49.672Z,4.60
2023-05-08T09:35:48.389Z,4.32
2023-05-08T09:40:47.196Z,4.13
2023-05-08T09:45:43.761Z,4.35
2023-05-08T09:50:43.751Z,3.78
2023-05-08T09:55:49.317Z,3.58
2023-05-08T10:00:45.829Z,3.70
2023-05-08T10:05:42.581Z,3.70
2023-05-08T10:10:40.299Z,4.13
2023-05-08T10:15:38.606Z,3.40
2023-05-08T10:20:39.395Z,3.83
2023-05-08T10:25:36.657Z,3.40
2023-05-08T10:30:36.535Z,3.25
2023-05-08T10:35:33.807Z,3.20
2023-05-08T10:40:30.786Z,3.10
2023-05-08T10:45:28.327Z,3.08
2023-05-08T10:50:37.626Z,3.08
2023-05-08T10:55:55.643Z,3.03
2023-05-08T11:00:52.622Z,2.92
2023-05-08T11:05:50.590Z,3.03
2023-05-08T11:10:54.701Z,2.70
2023-05-08T11:15:53.733Z,2.70
2023-05-08T11:21:03.792Z,2.35
2023-05-08T11:26:07.839Z,2.38
2023-05-08T11:31:05.677Z,2.15
2023-05-08T11:36:16.344Z,2.58
2023-05-08T11:41:23.145Z,2.45
2023-05-08T11:46:21.553Z,1.80
2023-05-08T11:51:21.902Z,2.17
2023-05-08T11:56:19.386Z,1.80
2023-05-08T12:01:25.282Z,1.80
2023-05-08T12:06:24.012Z,1.85
2023-05-08T12:11:28.623Z,1.85
2023-05-08T12:16:29.284Z,1.63
2023-05-08T12:21:28.224Z,1.88
2023-05-08T12:26:26.436Z,1.90
2023-05-08T12:31:23.487Z,1.85
2023-05-08T12:36:20.661Z,1.92
2023-05-08T12:41:24.141Z,1.48
2023-05-08T12:46:22.992Z,1.85
2023-05-08T12:51:19.446Z,1.60
2023-05-08T12:56:22.078Z,1.70
2023-05-08T13:01:18.511Z,2.13
2023-05-08T13:06:22.525Z,1.70
2023-05-08T13:11:30.260Z,1.45
2023-05-08T13:16:26.927Z,1.50
2023-05-08T13:21:25.130Z,1.67
2023-05-08T13:26:23.045Z,1.70
2023-05-08T13:31:20.425Z,1.83
2023-05-08T13:36:18.997Z,1.70
2023-05-08T13:41:17.984Z,1.42
2023-05-08T13:46:20.125Z,1.65
2023-05-08T13:51:18.075Z,2.10
2023-05-08T13:56:18.301Z,1.85
2023-05-08T14:01:26.616Z,1.98
2023-05-08T14:06:23.901Z,1.70
2023-05-08T14:11:22.384Z,1.80
2023-05-08T14:16:20.916Z,1.70
2023-05-08T14:21:27.584Z,1.67
2023-05-08T14:26:24.107Z,1.73
2023-05-08T14:31:22.810Z,1.63
2023-05-08T14:36:20.318Z,12.13
2023-05-08T14:41:17.520Z,1.40
2023-05-08T14:46:17.010Z,1.38
2023-05-08T14:51:24.456Z,1.42
2023-05-08T14:56:24.688Z,1.52
2023-05-08T15:01:32.421Z,1.50
2023-05-08T15:06:38.106Z,1.30
2023-05-08T15:17:02.179Z,1.60
2023-05-08T15:21:58.635Z,2.10
2023-05-08T15:27:12.748Z,1.63
2023-05-08T15:32:09.440Z,1.38
2023-05-08T15:37:06.020Z,1.60
2023-05-08T15:42:02.493Z,1.35
2023-05-08T15:47:31.616Z,1.20
2023-05-08T15:52:28.349Z,1.13
2023-05-08T15:57:26.970Z,1.20
2023-05-08T16:02:23.593Z,1.30
2023-05-08T16:07:21.058Z,1.15
2023-05-08T16:12:22.083Z,1.20
2023-05-08T16:17:18.702Z,1.40
2023-05-08T16:22:15.276Z,1.42
2023-05-08T16:27:12.325Z,1.13
2023-05-08T16:32:08.808Z,1.20
2023-05-08T16:37:05.440Z,1.00
2023-05-08T16:42:01.943Z,1.30
2023-05-08T16:46:58.473Z,1.30
2023-05-08T16:51:54.958Z,1.30
2023-05-08T16:56:51.559Z,1.38
2023-05-08T17:01:49.435Z,1.30
2023-05-08T17:06:46.360Z,1.25
2023-05-08T17:11:43.542Z,1.27
2023-05-08T17:16:40.609Z,1.08
2023-05-08T17:21:37.100Z,1.30
2023-05-08T17:26:33.594Z,1.27
2023-05-08T17:31:30.161Z,1.15
2023-05-08T17:36:27.691Z,1.30
2023-05-08T17:41:24.172Z,1.20
2023-05-08T17:46:20.863Z,1.20
2023-05-08T17:51:17.580Z,1.23
2023-05-08T17:56:17.533Z,1.75
2023-05-08T18:01:15.433Z,4.70
2023-05-08T18:06:17.842Z,2.33
2023-05-08T18:11:21.235Z,1.50
2023-05-08T18:16:21.414Z,2.20
2023-05-08T18:21:19.192Z,1.30
2023-05-08T18:26:16.303Z,1.80
2023-05-08T18:31:13.379Z,1.33
2023-05-08T18:36:09.916Z,1.65
2023-05-08T18:41:06.404Z,1.38
2023-05-08T18:46:10.943Z,1.42
2023-05-08T18:51:07.403Z,1.13
2023-05-08T18:56:04.383Z,1.50
2023-05-08T19:01:01.299Z,1.33
2023-05-08T19:05:57.817Z,1.40
2023-05-08T19:10:56.184Z,1.55
2023-05-08T19:15:55.282Z,2.10
2023-05-08T19:20:53.124Z,1.55
2023-05-08T19:25:52.061Z,1.40
2023-05-08T19:30:48.746Z,1.85
2023-05-08T19:35:45.612Z,2.00
2023-05-08T19:40:56.246Z,1.38
2023-05-08T19:45:56.345Z,1.60
2023-05-08T19:50:54.598Z,1.70
2023-05-08T19:55:58.497Z,1.55
2023-05-08T20:01:02.455Z,1.63
2023-05-08T20:06:08.809Z,1.70
2023-05-08T20:16:48.712Z,1.50
2023-05-08T20:21:52.767Z,1.70
2023-05-08T20:26:53.945Z,1.77
2023-05-08T20:31:53.742Z,1.88
2023-05-08T20:36:50.479Z,2.05
2023-05-08T20:41:47.014Z,1.92
2023-05-08T20:51:40.368Z,1.63
2023-05-08T20:56:37.353Z,1.65
2023-05-08T21:01:33.915Z,1.77
2023-05-08T21:11:27.147Z,1.65
2023-05-08T21:21:23.211Z,1.70
2023-05-08T21:31:17.673Z,1.50
2023-05-08T21:36:14.334Z,2.30
2023-05-08T21:41:10.837Z,1.80
2023-05-08T21:46:09.063Z,1.20
2023-05-08T21:51:09.993Z,1.48
2023-05-08T21:56:07.021Z,1.63
2023-05-08T22:01:03.776Z,2.00
2023-05-08T22:06:00.342Z,1.30
2023-05-08T22:15:53.869Z,2.30
2023-05-08T22:20:52.974Z,1.40
2023-05-08T22:25:51.726Z,1.70
2023-05-08T22:30:52.869Z,1.98
2023-05-08T22:35:49.422Z,1.60
2023-05-08T22:50:44.490Z,1.52
2023-05-08T22:55:41.366Z,1.52
2023-05-08T23:00:38.437Z,1.75
2023-05-08T23:05:34.917Z,1.60
2023-05-08T23:10:31.455Z,1.77
2023-05-08T23:20:30.326Z,1.45
2023-05-08T23:25:26.883Z,1.77
2023-05-08T23:30:23.387Z,1.90
2023-05-08T23:35:20.049Z,1.73
2023-05-08T23:45:14.062Z,2.20
2023-05-08T23:50:11.430Z,1.95
2023-05-08T23:55:09.796Z,1.38
